createdAt,value
2019-03-18T00:00:31.722Z,6.60
2019-03-18T00:02:58.723Z,6.70
2019-03-18T00:05:25.467Z,6.80
2019-03-18T00:07:51.796Z,6.80
2019-03-18T00:10:18.543Z,6.90
2019-03-18T00:12:44.892Z,6.90
2019-03-18T00:15:11.255Z,6.90
2019-03-18T00:17:37.578Z,6.90
2019-03-18T00:20:07.958Z,6.80
2019-03-18T00:22:35.280Z,6.70
2019-03-18T00:25:04.640Z,6.70
2019-03-18T00:27:31.351Z,6.70
2019-03-18T00:29:57.950Z,6.80
2019-03-18T00:32:24.263Z,6.90
2019-03-18T00:34:50.669Z,6.90
2019-03-18T00:37:17.367Z,6.90
2019-03-18T00:39:44.032Z,6.80
2019-03-18T00:42:10.336Z,6.80
2019-03-18T00:44:36.976Z,6.80
2019-03-18T00:47:03.288Z,6.70
2019-03-18T00:49:29.702Z,6.60
2019-03-18T00:51:56.040Z,6.60
2019-03-18T00:54:22.721Z,6.70
2019-03-18T00:56:49.347Z,6.60
2019-03-18T00:59:15.973Z,6.60
2019-03-18T01:01:42.307Z,6.60
2019-03-18T01:04:08.946Z,6.40
2019-03-18T01:06:35.522Z,6.40
2019-03-18T01:09:02.193Z,6.40
2019-03-18T01:11:29.473Z,6.50
2019-03-18T01:13:55.831Z,6.30
2019-03-18T01:16:22.442Z,6.30
2019-03-18T01:18:48.792Z,6.30
2019-03-18T01:21:15.102Z,6.30
2019-03-18T01:23:41.428Z,6.30
2019-03-18T01:26:08.089Z,6.20
2019-03-18T01:28:34.419Z,6.20
2019-03-18T01:31:00.753Z,6.10
2019-03-18T01:33:27.386Z,6.10
2019-03-18T01:35:53.718Z,6.10
2019-03-18T01:38:20.101Z,6.00
2019-03-18T01:40:46.414Z,6.10
2019-03-18T01:43:13.073Z,6.10
2019-03-18T01:45:40.958Z,6.10
2019-03-18T01:48:08.057Z,6.10
2019-03-18T01:50:34.393Z,6.00
2019-03-18T01:53:01.010Z,6.00
2019-03-18T01:55:27.387Z,6.00
2019-03-18T01:57:53.975Z,5.90
2019-03-18T02:00:20.344Z,5.90
2019-03-18T02:02:46.672Z,5.90
2019-03-18T02:05:13.280Z,5.90
2019-03-18T02:07:40.753Z,5.90
2019-03-18T02:10:15.472Z,6.00
2019-03-18T02:12:41.916Z,6.00
2019-03-18T02:15:11.207Z,5.90
2019-03-18T02:17:37.946Z,5.90
2019-03-18T02:20:13.204Z,5.80
2019-03-18T02:22:39.916Z,5.80
2019-03-18T02:25:08.735Z,5.90
2019-03-18T02:27:35.069Z,5.80
2019-03-18T02:30:02.991Z,5.90
2019-03-18T02:32:29.768Z,5.80
2019-03-18T02:34:56.388Z,5.80
2019-03-18T02:37:22.754Z,5.80
2019-03-18T02:39:49.092Z,5.80
2019-03-18T02:42:15.782Z,5.70
2019-03-18T02:44:42.456Z,5.70
2019-03-18T02:47:09.170Z,5.70
2019-03-18T02:49:35.466Z,5.60
2019-03-18T02:52:01.827Z,5.50
2019-03-18T02:54:28.596Z,5.60
2019-03-18T02:56:54.914Z,5.50
2019-03-18T02:59:21.285Z,5.60
2019-03-18T03:01:47.688Z,5.60
2019-03-18T03:04:14.013Z,5.70
2019-03-18T03:06:40.373Z,5.60
2019-03-18T03:09:06.784Z,5.70
2019-03-18T03:11:34.478Z,5.80
2019-03-18T03:14:01.075Z,5.80
2019-03-18T03:16:27.799Z,5.80
2019-03-18T03:18:54.283Z,5.70
2019-03-18T03:21:20.618Z,5.70
2019-03-18T03:23:46.934Z,5.80
2019-03-18T03:26:13.285Z,5.70
2019-03-18T03:28:39.595Z,5.70
2019-03-18T03:31:05.967Z,5.70
2019-03-18T03:33:32.324Z,5.60
2019-03-18T03:35:58.722Z,5.50
2019-03-18T03:38:25.080Z,5.60
2019-03-18T03:40:51.416Z,5.60
2019-03-18T03:43:17.757Z,5.60
2019-03-18T03:45:44.146Z,5.60
2019-03-18T03:48:10.717Z,5.50
2019-03-18T03:50:37.046Z,5.50
2019-03-18T03:53:03.350Z,5.50
2019-03-18T03:55:29.943Z,5.40
2019-03-18T03:57:56.367Z,5.30
2019-03-18T04:00:23.008Z,5.40
2019-03-18T04:02:49.870Z,5.30
2019-03-18T04:05:16.507Z,5.30
2019-03-18T04:07:42.953Z,5.10
2019-03-18T04:10:12.937Z,5.10
2019-03-18T04:12:39.587Z,5.10
2019-03-18T04:15:09.356Z,4.90
2019-03-18T04:17:36.021Z,4.90
2019-03-18T04:20:06.708Z,4.90
2019-03-18T04:22:33.399Z,4.80
2019-03-18T04:24:59.716Z,4.80
2019-03-18T04:27:26.356Z,4.70
2019-03-18T04:29:52.997Z,4.70
2019-03-18T04:32:19.313Z,4.60
2019-03-18T04:34:45.701Z,4.70
2019-03-18T04:37:12.302Z,4.60
2019-03-18T04:39:38.666Z,4.60
2019-03-18T04:42:04.990Z,4.60
2019-03-18T04:44:31.728Z,4.60
2019-03-18T04:46:58.352Z,4.50
2019-03-18T04:49:24.988Z,4.40
2019-03-18T04:51:51.754Z,4.40
2019-03-18T04:54:18.468Z,4.40
2019-03-18T04:56:45.107Z,4.30
2019-03-18T04:59:11.413Z,4.30
2019-03-18T05:01:37.794Z,4.30
2019-03-18T05:04:04.408Z,4.30
2019-03-18T05:06:31.149Z,4.30
2019-03-18T05:08:57.790Z,4.20
2019-03-18T05:11:24.119Z,4.10
2019-03-18T05:13:50.578Z,4.10
2019-03-18T05:16:17.385Z,4.10
2019-03-18T05:18:44.074Z,4.10
2019-03-18T05:21:10.377Z,4.10
2019-03-18T05:23:37.004Z,4.10
2019-03-18T05:26:03.342Z,4.10
2019-03-18T05:28:29.992Z,4.10
2019-03-18T05:30:56.611Z,4.20
2019-03-18T05:33:23.251Z,4.20
2019-03-18T05:35:49.891Z,4.20
2019-03-18T05:38:16.266Z,4.20
2019-03-18T05:40:42.600Z,4.30
2019-03-18T05:43:09.281Z,4.20
2019-03-18T05:45:35.918Z,4.30
2019-03-18T05:48:02.602Z,4.30
2019-03-18T05:50:28.923Z,4.30
2019-03-18T05:52:55.262Z,4.20
2019-03-18T05:55:21.854Z,4.30
2019-03-18T05:57:48.203Z,4.30
2019-03-18T06:00:14.580Z,4.30
2019-03-18T06:02:41.193Z,4.30
2019-03-18T06:05:07.811Z,4.20
2019-03-18T06:07:34.447Z,4.30
2019-03-18T06:10:00.912Z,4.30
2019-03-18T06:12:30.529Z,4.30
2019-03-18T06:14:56.039Z,4.30
2019-03-18T06:17:22.629Z,4.40
2019-03-18T06:19:49.014Z,4.30
2019-03-18T06:22:15.302Z,4.40
2019-03-18T06:24:41.655Z,4.40
2019-03-18T06:27:08.285Z,4.50
2019-03-18T06:29:34.748Z,4.50
2019-03-18T06:32:02.165Z,4.50
2019-03-18T06:34:28.788Z,4.60
2019-03-18T06:36:55.119Z,4.60
2019-03-18T06:39:21.863Z,4.60
2019-03-18T06:41:48.527Z,4.60
2019-03-18T06:44:14.829Z,4.70
2019-03-18T06:46:41.483Z,4.70
2019-03-18T06:49:10.090Z,4.70
2019-03-18T06:51:36.528Z,4.80
2019-03-18T06:54:02.941Z,4.80
2019-03-18T06:56:29.325Z,4.80
2019-03-18T06:58:55.735Z,4.80
2019-03-18T07:01:22.089Z,4.80
2019-03-18T07:03:48.511Z,4.80
2019-03-18T07:06:14.891Z,4.80
2019-03-18T07:08:41.438Z,4.80
2019-03-18T07:11:07.782Z,4.80
2019-03-18T07:13:34.406Z,4.90
2019-03-18T07:16:00.714Z,5.10
2019-03-18T07:18:27.416Z,5.10
2019-03-18T07:20:54.146Z,5.20
2019-03-18T07:23:20.452Z,5.30
2019-03-18T07:25:47.600Z,5.20
2019-03-18T07:28:13.928Z,5.30
2019-03-18T07:30:40.267Z,5.40
2019-03-18T07:33:06.938Z,5.50
2019-03-18T07:35:33.379Z,5.40
2019-03-18T07:38:00.036Z,5.40
2019-03-18T07:40:26.459Z,5.50
2019-03-18T07:42:53.245Z,5.50
2019-03-18T07:45:19.596Z,5.50
2019-03-18T07:47:46.321Z,5.50
2019-03-18T07:50:14.003Z,5.70
2019-03-18T07:52:40.627Z,5.80
2019-03-18T07:55:07.860Z,5.90
2019-03-18T07:57:34.513Z,6.10
2019-03-18T08:00:01.160Z,6.30
2019-03-18T08:02:27.791Z,6.30
2019-03-18T08:05:55.150Z,6.50
2019-03-18T08:25:17.859Z,7.10
2019-03-18T08:52:01.645Z,7.80
2019-03-18T09:02:42.379Z,7.80
2019-03-18T09:05:09.212Z,7.70
2019-03-18T09:07:37.062Z,7.80
2019-03-18T09:10:13.736Z,7.90
2019-03-18T09:12:40.244Z,8.20
2019-03-18T09:15:09.560Z,8.20
2019-03-18T09:17:36.916Z,8.40
2019-03-18T09:20:16.972Z,8.40
2019-03-18T09:22:43.472Z,8.70
2019-03-18T09:25:11.342Z,8.70
2019-03-18T09:27:38.894Z,8.70
2019-03-18T09:30:15.349Z,8.40
2019-03-18T09:32:41.931Z,8.50
2019-03-18T09:35:08.841Z,8.50
2019-03-18T09:37:35.485Z,8.50
2019-03-18T09:40:06.708Z,8.30
2019-03-18T09:42:33.317Z,8.00
2019-03-18T09:44:59.859Z,7.90
2019-03-18T09:47:26.417Z,8.00
2019-03-18T09:49:53.010Z,7.80
2019-03-18T09:52:19.760Z,7.80
2019-03-18T09:54:46.526Z,7.80
2019-03-18T09:57:25.089Z,8.10
2019-03-18T09:59:41.830Z,8.00
2019-03-18T10:02:08.469Z,8.10
2019-03-18T10:04:34.843Z,8.30
2019-03-18T10:07:01.128Z,8.10
2019-03-18T10:09:27.431Z,8.20
2019-03-18T10:11:53.813Z,8.10
2019-03-18T10:14:20.113Z,8.50
2019-03-18T10:16:46.741Z,8.30
2019-03-18T10:19:13.044Z,8.60
2019-03-18T10:21:39.957Z,8.90
2019-03-18T10:24:06.334Z,8.80
2019-03-18T10:26:32.674Z,8.80
2019-03-18T10:28:59.029Z,9.10
2019-03-18T10:31:25.369Z,8.90
2019-03-18T10:33:52.104Z,8.90
2019-03-18T10:36:18.845Z,9.10
2019-03-18T10:38:45.175Z,8.50
2019-03-18T10:41:11.812Z,8.80
2019-03-18T10:43:38.147Z,9.00
2019-03-18T10:46:04.517Z,8.90
2019-03-18T10:48:30.849Z,9.00
2019-03-18T10:50:57.209Z,9.20
2019-03-18T10:53:23.542Z,8.90
2019-03-18T10:55:50.277Z,9.20
2019-03-18T10:58:18.097Z,9.00
2019-03-18T11:00:44.762Z,8.60
2019-03-18T11:03:11.093Z,8.60
2019-03-18T11:05:37.405Z,8.60
2019-03-18T11:08:04.082Z,8.60
2019-03-18T11:10:30.550Z,8.50
2019-03-18T11:12:57.278Z,8.60
2019-03-18T11:15:23.647Z,8.80
2019-03-18T11:17:50.252Z,8.80
2019-03-18T11:20:16.598Z,9.00
2019-03-18T11:22:43.137Z,8.80
2019-03-18T11:25:12.508Z,8.80
2019-03-18T11:27:39.176Z,9.30
2019-03-18T11:30:14.329Z,9.40
2019-03-18T11:32:41.062Z,9.20
2019-03-18T11:35:07.691Z,9.80
2019-03-18T11:37:34.198Z,9.80
2019-03-18T11:40:00.607Z,10.90
2019-03-18T11:42:27.303Z,9.80
2019-03-18T11:44:53.802Z,9.20
2019-03-18T11:47:20.474Z,8.90
2019-03-18T11:49:46.775Z,9.20
2019-03-18T11:52:13.648Z,9.20
2019-03-18T11:54:39.968Z,9.40
2019-03-18T11:57:06.312Z,10.30
2019-03-18T11:59:32.695Z,10.40
2019-03-18T12:01:58.998Z,10.80
2019-03-18T12:04:25.678Z,10.70
2019-03-18T12:06:51.995Z,10.20
2019-03-18T12:09:18.449Z,9.90
2019-03-18T12:11:45.118Z,9.20
2019-03-18T12:14:11.521Z,10.40
2019-03-18T12:16:37.837Z,10.00
2019-03-18T12:19:04.513Z,9.90
2019-03-18T12:21:31.138Z,9.80
2019-03-18T12:23:57.778Z,10.50
2019-03-18T12:26:24.127Z,10.50
2019-03-18T12:28:50.755Z,9.80
2019-03-18T12:31:17.214Z,8.70
2019-03-18T12:33:43.600Z,8.20
2019-03-18T12:36:09.945Z,8.00
2019-03-18T12:38:36.294Z,8.70
2019-03-18T12:41:02.770Z,10.60
2019-03-18T12:43:30.175Z,12.60
2019-03-18T12:45:56.903Z,12.80
2019-03-18T12:48:24.444Z,13.50
2019-03-18T12:50:56.434Z,16.00
2019-03-18T12:53:19.298Z,13.60
2019-03-18T12:55:45.957Z,12.60
2019-03-18T12:58:12.706Z,11.50
2019-03-18T13:00:39.372Z,11.80
2019-03-18T13:03:05.669Z,12.30
2019-03-18T13:05:32.065Z,14.30
2019-03-18T13:07:58.501Z,15.70
2019-03-18T13:10:24.812Z,15.30
2019-03-18T13:12:51.526Z,14.70
2019-03-18T13:15:19.139Z,13.40
2019-03-18T13:17:46.940Z,13.70
2019-03-18T13:20:15.180Z,12.50
2019-03-18T13:22:43.058Z,12.60
2019-03-18T13:25:11.316Z,11.30
2019-03-18T13:27:38.737Z,10.00
2019-03-18T13:30:23.026Z,8.20
2019-03-18T13:32:49.673Z,6.90
2019-03-18T13:35:16.201Z,6.00
2019-03-18T13:37:42.614Z,5.80
2019-03-18T13:40:18.079Z,5.60
2019-03-18T13:42:44.737Z,5.50
2019-03-18T13:45:15.374Z,7.50
2019-03-18T13:47:42.224Z,10.30
2019-03-18T13:50:16.136Z,12.40
2019-03-18T13:52:42.969Z,15.50
2019-03-18T13:55:09.942Z,17.20
2019-03-18T13:57:36.375Z,15.40
2019-03-18T14:00:19.822Z,15.90
2019-03-18T14:02:46.827Z,13.20
2019-03-18T14:05:13.710Z,13.90
2019-03-18T14:07:40.082Z,10.80
2019-03-18T14:10:19.070Z,10.40
2019-03-18T14:12:46.728Z,9.60
2019-03-18T14:15:17.024Z,9.00
2019-03-18T14:17:43.903Z,9.60
2019-03-18T14:20:14.593Z,9.60
2019-03-18T14:22:41.642Z,10.40
2019-03-18T14:25:09.813Z,11.30
2019-03-18T14:27:36.137Z,10.20
2019-03-18T14:30:15.684Z,9.30
2019-03-18T14:32:42.838Z,8.70
2019-03-18T14:35:09.656Z,8.30
2019-03-18T14:37:36.532Z,10.10
2019-03-18T14:40:11.783Z,10.80
2019-03-18T14:42:38.562Z,11.70
2019-03-18T14:45:12.789Z,10.70
2019-03-18T14:47:39.278Z,10.90
2019-03-18T14:50:09.801Z,10.70
2019-03-18T14:52:36.424Z,11.20
2019-03-18T14:55:07.926Z,11.40
2019-03-18T14:57:35.556Z,10.80
2019-03-18T15:00:06.991Z,12.10
2019-03-18T15:02:33.341Z,12.20
2019-03-18T15:04:59.674Z,12.50
2019-03-18T15:07:27.212Z,13.70
2019-03-18T15:09:53.609Z,13.30
2019-03-18T15:12:20.080Z,13.90
2019-03-18T15:14:46.449Z,14.10
2019-03-18T15:17:13.237Z,13.60
2019-03-18T15:19:39.622Z,13.30
2019-03-18T15:22:06.329Z,13.60
2019-03-18T15:24:33.105Z,13.30
2019-03-18T15:27:00.208Z,13.50
2019-03-18T15:29:27.168Z,12.70
2019-03-18T15:31:53.743Z,10.30
2019-03-18T15:34:20.556Z,9.30
2019-03-18T15:36:48.562Z,8.60
2019-03-18T15:39:16.671Z,8.70
2019-03-18T15:41:43.079Z,8.90
2019-03-18T15:44:09.631Z,9.90
2019-03-18T15:46:36.318Z,11.30
2019-03-18T15:49:03.030Z,11.00
2019-03-18T15:51:29.811Z,12.30
2019-03-18T15:53:56.452Z,13.40
2019-03-18T15:56:23.154Z,12.30
2019-03-18T15:58:50.067Z,12.90
2019-03-18T16:01:16.728Z,12.60
2019-03-18T16:03:43.060Z,10.40
2019-03-18T16:06:09.834Z,9.80
2019-03-18T16:08:36.162Z,8.80
2019-03-18T16:11:02.908Z,8.40
2019-03-18T16:13:29.658Z,8.00
2019-03-18T16:15:56.318Z,7.90
2019-03-18T16:18:22.705Z,7.90
2019-03-18T16:20:49.340Z,7.70
2019-03-18T16:23:15.735Z,7.80
2019-03-18T16:25:43.070Z,7.80
2019-03-18T16:28:09.493Z,8.00
2019-03-18T16:30:36.328Z,7.90
2019-03-18T16:33:02.673Z,8.10
2019-03-18T16:35:29.033Z,8.00
2019-03-18T16:37:55.764Z,8.10
2019-03-18T16:40:23.127Z,8.10
2019-03-18T16:42:49.432Z,8.00
2019-03-18T16:45:17.282Z,7.90
2019-03-18T16:47:43.991Z,8.10
2019-03-18T16:50:28.274Z,8.00
2019-03-18T16:52:55.005Z,8.00
2019-03-18T16:55:21.375Z,7.90
2019-03-18T16:57:48.371Z,7.80
2019-03-18T17:00:24.123Z,7.80
2019-03-18T17:02:50.645Z,7.70
2019-03-18T17:05:17.024Z,7.70
2019-03-18T17:07:43.562Z,7.50
2019-03-18T17:10:12.730Z,7.40
2019-03-18T17:12:39.710Z,7.30
2019-03-18T17:15:12.133Z,7.20
2019-03-18T17:17:41.738Z,7.20
2019-03-18T17:20:13.479Z,7.10
2019-03-18T17:22:48.822Z,7.10
2019-03-18T17:25:22.120Z,7.00
2019-03-18T17:27:48.452Z,6.90
2019-03-18T17:30:17.180Z,6.90
2019-03-18T17:32:44.654Z,6.80
2019-03-18T17:35:11.315Z,6.70
2019-03-18T17:37:37.663Z,6.60
2019-03-18T17:40:18.502Z,6.60
2019-03-18T17:42:45.073Z,6.60
2019-03-18T17:45:19.210Z,6.50
2019-03-18T17:47:45.964Z,6.40
2019-03-18T17:50:34.096Z,6.30
2019-03-18T17:53:03.865Z,6.30
2019-03-18T17:55:30.380Z,6.20
2019-03-18T17:57:56.794Z,6.10
2019-03-18T18:00:35.839Z,6.10
2019-03-18T18:03:02.934Z,6.00
2019-03-18T18:05:40.403Z,6.00
2019-03-18T18:08:09.126Z,5.90
2019-03-18T18:10:39.958Z,5.90
2019-03-18T18:13:10.056Z,5.80
2019-03-18T18:15:45.292Z,5.70
2019-03-18T18:18:11.808Z,5.70
2019-03-18T18:20:46.342Z,5.60
2019-03-18T18:23:14.898Z,5.60
2019-03-18T18:25:41.789Z,5.60
2019-03-18T18:28:08.477Z,5.50
2019-03-18T18:30:34.915Z,5.50
2019-03-18T18:33:01.281Z,5.50
2019-03-18T18:35:28.802Z,5.40
2019-03-18T18:37:56.579Z,5.50
2019-03-18T18:40:26.657Z,5.40
2019-03-18T18:42:53.101Z,5.40
2019-03-18T18:45:21.247Z,5.30
2019-03-18T18:47:48.014Z,5.30
2019-03-18T18:50:14.760Z,5.20
2019-03-18T18:52:41.498Z,5.10
2019-03-18T18:55:11.619Z,5.10
2019-03-18T18:57:37.946Z,5.10
2019-03-18T19:00:22.092Z,5.10
2019-03-18T19:02:48.446Z,5.10
2019-03-18T19:05:15.989Z,5.10
2019-03-18T19:07:44.467Z,5.10
2019-03-18T19:10:17.851Z,5.10
2019-03-18T19:12:44.731Z,5.00
2019-03-18T19:15:20.031Z,5.10
2019-03-18T19:17:46.839Z,5.10
2019-03-18T19:20:14.332Z,5.10
2019-03-18T19:22:40.792Z,5.10
2019-03-18T19:25:17.658Z,5.10
2019-03-18T19:27:44.101Z,5.00
2019-03-18T19:30:17.219Z,5.10
2019-03-18T19:32:45.524Z,5.10
2019-03-18T19:35:12.629Z,5.10
2019-03-18T19:37:39.048Z,5.10
2019-03-18T19:40:19.403Z,5.10
2019-03-18T19:42:46.049Z,5.10
2019-03-18T19:45:13.296Z,5.20
2019-03-18T19:47:40.148Z,5.20
2019-03-18T19:50:14.477Z,5.10
2019-03-18T19:52:41.003Z,5.20
2019-03-18T19:55:08.054Z,5.10
2019-03-18T19:57:34.764Z,5.10
2019-03-18T20:00:14.232Z,5.00
2019-03-18T20:02:40.984Z,5.00
2019-03-18T20:05:14.902Z,5.00
2019-03-18T20:07:35.876Z,4.90
2019-03-18T20:10:11.651Z,4.90
2019-03-18T20:12:37.986Z,5.00
2019-03-18T20:15:09.580Z,5.00
2019-03-18T20:17:36.251Z,5.00
2019-03-18T20:20:07.317Z,4.90
2019-03-18T20:22:33.996Z,4.90
2019-03-18T20:25:00.397Z,4.90
2019-03-18T20:27:27.012Z,4.80
2019-03-18T20:29:54.663Z,4.80
2019-03-18T20:32:21.411Z,4.80
2019-03-18T20:34:47.809Z,4.80
2019-03-18T20:37:15.396Z,4.80
2019-03-18T20:39:42.174Z,4.80
2019-03-18T20:42:08.811Z,4.80
2019-03-18T20:44:35.178Z,4.90
2019-03-18T20:47:01.527Z,4.90
2019-03-18T20:49:27.890Z,5.00
2019-03-18T20:51:54.474Z,5.10
2019-03-18T20:54:21.062Z,5.10
2019-03-18T20:56:47.460Z,5.20
2019-03-18T20:59:13.782Z,5.20
2019-03-18T21:01:40.147Z,5.20
2019-03-18T21:04:06.710Z,5.10
2019-03-18T21:06:33.074Z,5.20
2019-03-18T21:08:59.420Z,5.20
2019-03-18T21:11:25.837Z,5.20
2019-03-18T21:13:57.116Z,5.30
2019-03-18T21:16:20.503Z,5.30
2019-03-18T21:18:47.237Z,5.40
2019-03-18T21:21:14.895Z,5.50
2019-03-18T21:23:41.217Z,5.50
2019-03-18T21:26:08.081Z,5.50
2019-03-18T21:28:41.287Z,5.50
2019-03-18T21:31:03.072Z,5.50
2019-03-18T21:33:29.510Z,5.50
2019-03-18T21:35:56.974Z,5.50
2019-03-18T21:38:23.361Z,5.60
2019-03-18T21:40:50.063Z,5.60
2019-03-18T21:43:16.394Z,5.50
2019-03-18T21:45:42.827Z,5.50
2019-03-18T21:48:09.225Z,5.60
2019-03-18T21:50:35.889Z,5.50
2019-03-18T21:53:02.227Z,5.60
2019-03-18T21:55:28.557Z,5.60
2019-03-18T21:57:55.776Z,5.60
2019-03-18T22:00:22.347Z,5.60
2019-03-18T22:02:48.886Z,5.60
2019-03-18T22:05:15.660Z,5.60
2019-03-18T22:07:42.059Z,5.60
2019-03-18T22:10:12.113Z,5.70
2019-03-18T22:12:38.436Z,5.60
2019-03-18T22:15:08.674Z,5.60
2019-03-18T22:17:35.023Z,5.60
2019-03-18T22:20:04.217Z,5.60
2019-03-18T22:22:30.586Z,5.50
2019-03-18T22:24:57.474Z,5.30
2019-03-18T22:27:24.202Z,5.30
2019-03-18T22:29:51.015Z,5.20
2019-03-18T22:32:17.382Z,5.10
2019-03-18T22:34:43.701Z,5.00
2019-03-18T22:37:10.031Z,5.00
2019-03-18T22:39:36.343Z,4.90
2019-03-18T22:42:02.739Z,4.90
2019-03-18T22:44:29.199Z,4.90
2019-03-18T22:46:55.508Z,4.80
2019-03-18T22:49:21.827Z,4.80
2019-03-18T22:51:48.157Z,4.80
2019-03-18T22:54:15.754Z,4.90
2019-03-18T22:56:42.076Z,4.90
2019-03-18T22:59:08.417Z,4.90
2019-03-18T23:01:35.057Z,5.00
2019-03-18T23:04:01.466Z,4.90
2019-03-18T23:06:28.130Z,4.80
2019-03-18T23:08:54.776Z,4.80
2019-03-18T23:11:21.409Z,4.80
2019-03-18T23:13:47.748Z,4.90
2019-03-18T23:16:14.404Z,4.80
2019-03-18T23:18:40.734Z,4.80
2019-03-18T23:21:07.358Z,4.80
2019-03-18T23:23:33.993Z,4.80
2019-03-18T23:26:00.351Z,4.80
2019-03-18T23:28:27.054Z,4.80
2019-03-18T23:30:53.430Z,4.90
2019-03-18T23:33:20.427Z,5.00
2019-03-18T23:35:47.690Z,5.00
2019-03-18T23:38:14.054Z,5.10
2019-03-18T23:40:40.486Z,5.10
2019-03-18T23:43:07.215Z,5.20
2019-03-18T23:45:33.526Z,5.20
2019-03-18T23:48:00.185Z,5.30
2019-03-18T23:50:26.561Z,5.20
2019-03-18T23:52:52.913Z,5.30
2019-03-18T23:55:20.115Z,5.20
2019-03-18T23:57:46.688Z,5.20
